Time;durP1;ratioP1;P1;durP2;ratioP2;P2;SDS_P1;SDS_P2;PMS_P1;PMS_P2;Temp;Humidity;BMP_temperature;BMP_pressure;BME280_temperature;BME280_humidity;BME280_pressure;Samples;Min_cycle;Max_cycle;Signal;HPM_P1;HPM_P2
2024/01/28 00:00:49;;;;;;;10.67;8.43;;;;;;;-0.72;100.00;97736.25;7395507;19;20380;-89
2024/01/28 00:03:20;;;;;;;13.27;7.67;;;;;;;-0.56;100.00;97737.75;7395192;19;20416;-89
2024/01/28 00:05:47;;;;;;;9.73;7.67;;;;;;;-1.54;100.00;97586.84;7395479;19;20877;-87
2024/01/28 00:08:15;;;;;;;10.60;7.20;;;;;;;-1.64;100.00;97582.06;7396047;19;20399;-89
2024/01/28 00:10:43;;;;;;;10.27;8.00;;;;;;;-0.83;100.00;97702.53;7395301;19;20393;-89
2024/01/28 00:13:17;;;;;;;10.67;7.57;;;;;;;-1.55;100.00;97604.06;7394502;19;20489;-88
2024/01/28 00:15:45;;;;;;;10.63;7.70;;;;;;;-0.85;100.00;97724.09;7395475;19;20406;-89
2024/01/28 00:18:13;;;;;;;10.80;8.63;;;;;;;-0.65;100.00;97742.25;7395183;19;20389;-89
2024/01/28 00:20:43;;;;;;;16.23;9.20;;;;;;;-0.59;100.00;97728.59;7395671;19;20380;-89
2024/01/28 00:23:11;;;;;;;13.37;10.20;;;;;;;-0.95;100.00;97684.22;7395002;19;20416;-89
2024/01/28 00:25:39;;;;;;;11.50;9.67;;;;;;;-0.65;100.00;97726.78;7403387;19;20375;-90
2024/01/28 00:28:06;;;;;;;12.83;9.77;;;;;;;-0.95;100.00;97708.22;7402422;19;20459;-89
2024/01/28 00:30:34;;;;;;;8.50;6.90;;;;;;;-1.54;100.00;97604.88;7402218;19;20863;-89
2024/01/28 00:33:02;;;;;;;9.83;8.73;;;;;;;-1.39;100.00;97636.41;7401598;19;20408;-89
2024/01/28 00:35:30;;;;;;;9.93;8.07;;;;;;;-1.58;100.00;97604.47;7399699;19;20388;-89
2024/01/28 00:38:00;;;;;;;17.63;7.10;;;;;;;-1.09;100.00;97672.25;7402321;19;20393;-89
2024/01/28 00:40:28;;;;;;;9.80;7.43;;;;;;;-1.04;100.00;97691.31;7402282;19;20376;-89
2024/01/28 00:42:56;;;;;;;10.13;7.30;;;;;;;-1.12;100.00;97678.56;7401335;19;20401;-89
2024/01/28 00:45:25;;;;;;;9.10;7.77;;;;;;;-1.92;100.00;97545.25;7402101;19;20934;-89
2024/01/28 00:47:53;;;;;;;10.57;7.67;;;;;;;-0.76;100.00;97708.50;7402283;19;20416;-89
2024/01/28 00:50:23;;;;;;;13.60;8.57;;;;;;;-1.40;100.00;97637.44;7402108;19;20389;-89
2024/01/28 00:52:51;;;;;;;8.80;7.80;;;;;;;-1.61;100.00;97633.16;7400293;19;20416;-90
2024/01/28 00:55:18;;;;;;;11.03;7.40;;;;;;;-1.00;100.00;97726.00;7399943;19;20426;-89
2024/01/28 00:57:46;;;;;;;12.20;7.30;;;;;;;-1.37;100.00;97675.66;7401468;19;20468;-89
2024/01/28 01:00:18;;;;;;;9.93;7.73;;;;;;;-1.92;100.00;97576.91;7401522;19;20398;-90
2024/01/28 01:02:46;;;;;;;12.73;8.33;;;;;;;-1.62;100.00;97630.78;7401485;19;20401;-90
2024/01/28 01:05:13;;;;;;;16.43;8.07;;;;;;;-1.26;100.00;97715.53;7401899;19;20400;-89
2024/01/28 01:07:43;;;;;;;11.80;7.83;;;;;;;-1.33;100.00;97668.34;7401703;19;20413;-89
2024/01/28 01:10:11;;;;;;;9.77;7.73;;;;;;;-2.18;100.00;97528.66;7400966;19;20870;-90
2024/01/28 01:12:40;;;;;;;9.17;7.43;;;;;;;-1.38;100.00;97648.31;7400910;19;20401;-89
2024/01/28 01:15:09;;;;;;;9.00;7.60;;;;;;;-1.54;100.00;97615.97;7399882;19;20878;-90
2024/01/28 01:17:37;;;;;;;15.20;7.30;;;;;;;-1.05;100.00;97694.88;7401763;19;20385;-89
2024/01/28 01:20:06;;;;;;;9.67;6.67;;;;;;;-1.53;100.00;97611.59;7401081;19;20842;-89
2024/01/28 01:22:33;;;;;;;13.40;7.80;;;;;;;-2.16;100.00;97531.06;7400679;19;20377;-89
2024/01/28 01:25:01;;;;;;;10.47;6.70;;;;;;;-1.56;100.00;97617.13;7402647;19;20365;-89
2024/01/28 01:27:28;;;;;;;10.43;6.20;;;;;;;-1.85;100.00;97574.41;7400838;19;20389;-89
2024/01/28 01:29:56;;;;;;;8.70;7.10;;;;;;;-1.78;100.00;97573.47;7400328;19;20385;-89
2024/01/28 01:32:23;;;;;;;11.87;6.80;;;;;;;-1.43;100.00;97657.63;7400183;19;20389;-90
2024/01/28 01:34:51;;;;;;;10.23;7.83;;;;;;;-1.72;100.00;97595.06;7398998;19;20456;-89
2024/01/28 01:37:19;;;;;;;17.80;8.70;;;;;;;-1.43;100.00;97629.31;7400104;19;20390;-89
2024/01/28 01:39:46;;;;;;;7.90;6.77;;;;;;;-2.13;100.00;97538.41;7399948;19;20369;-89
2024/01/28 01:42:13;;;;;;;10.37;7.30;;;;;;;-1.85;100.00;97598.34;7399996;19;20393;-89
2024/01/28 01:44:41;;;;;;;12.57;9.10;;;;;;;-2.75;100.00;97509.03;7399728;19;20699;-89
2024/01/28 01:47:08;;;;;;;9.73;7.87;;;;;;;-1.83;100.00;97621.31;7400097;19;20381;-90
2024/01/28 01:49:36;;;;;;;11.67;8.40;;;;;;;-2.37;100.00;97522.41;7399716;19;20456;-90
2024/01/28 01:52:06;;;;;;;12.37;8.00;;;;;;;-2.25;100.00;97553.53;7401253;19;20377;-90
2024/01/28 01:54:34;;;;;;;11.40;8.07;;;;;;;-2.80;100.00;97461.75;7397410;19;20420;-90
2024/01/28 01:57:02;;;;;;;9.20;8.27;;;;;;;-2.40;100.00;97553.63;7399920;19;20383;-90
2024/01/28 01:59:30;;;;;;;14.63;7.33;;;;;;;-2.01;100.00;97584.97;7399821;19;20368;-92
2024/01/28 02:02:01;;;;;;;17.73;8.30;;;;;;;-1.66;100.00;97627.75;7400113;19;20392;-91
2024/01/28 02:04:29;;;;;;;15.03;8.33;;;;;;;-1.75;100.00;97600.59;7398078;19;20437;-92
2024/01/28 02:06:57;;;;;;;12.73;7.57;;;;;;;-1.70;100.00;97623.19;7399934;19;20388;-92
2024/01/28 02:09:24;;;;;;;17.53;7.77;;;;;;;-2.47;100.00;97510.84;7399865;19;20463;-90
2024/01/28 02:11:52;;;;;;;12.00;7.40;;;;;;;-2.08;100.00;97582.34;7400258;19;20387;-92
2024/01/28 02:14:27;;;;;;;13.00;6.67;;;;;;;-2.26;100.00;97562.22;7398218;19;20396;-92
2024/01/28 02:16:55;;;;;;;14.50;6.63;;;;;;;-1.51;100.00;97681.72;7400374;19;20387;-92
2024/01/28 02:19:23;;;;;;;19.20;8.33;;;;;;;-2.05;100.00;97607.69;7398800;19;20372;-92
2024/01/28 02:21:50;;;;;;;13.33;7.53;;;;;;;-2.33;100.00;97537.44;7398958;19;20397;-90
2024/01/28 02:24:20;;;;;;;11.60;6.10;;;;;;;-1.88;100.00;97610.81;7397505;19;20450;-92
2024/01/28 02:26:47;;;;;;;10.77;7.90;;;;;;;-2.14;100.00;97586.47;7399573;19;20389;-90
2024/01/28 02:29:15;;;;;;;11.30;6.27;;;;;;;-2.21;100.00;97589.94;7399328;19;20512;-91
2024/01/28 02:31:45;;;;;;;11.33;5.93;;;;;;;-1.74;100.00;97665.72;7398934;19;20369;-90
2024/01/28 02:34:16;;;;;;;8.20;5.90;;;;;;;-2.06;100.00;97632.59;7397126;19;20415;-91
2024/01/28 02:36:44;;;;;;;13.27;8.57;;;;;;;-2.92;100.00;97484.56;7399176;19;20393;-91
2024/01/28 02:39:11;;;;;;;11.13;6.80;;;;;;;-2.67;100.00;97539.75;7398807;19;20695;-90
2024/01/28 02:41:39;;;;;;;11.93;6.53;;;;;;;-2.60;100.00;97528.72;7398851;19;20384;-90
2024/01/28 02:44:06;;;;;;;8.30;5.37;;;;;;;-2.41;100.00;97558.94;7397367;19;20412;-90
2024/01/28 02:46:34;;;;;;;11.83;5.60;;;;;;;-2.28;100.00;97571.91;7397263;19;20377;-91
2024/01/28 02:49:01;;;;;;;9.17;6.83;;;;;;;-1.92;100.00;97615.50;7397986;19;20381;-93
2024/01/28 02:51:29;;;;;;;10.23;7.67;;;;;;;-2.32;100.00;97552.66;7398103;19;20373;-90
2024/01/28 02:53:56;;;;;;;12.57;5.70;;;;;;;-2.16;100.00;97598.72;7396346;19;20445;-91
2024/01/28 02:56:24;;;;;;;10.20;7.50;;;;;;;-1.56;100.00;97697.72;7396681;19;20364;-91
2024/01/28 02:58:51;;;;;;;10.70;7.70;;;;;;;-1.70;100.00;97669.50;7398260;19;20369;-90
2024/01/28 03:01:20;;;;;;;17.80;8.57;;;;;;;-3.05;100.00;97454.44;7398142;19;20758;-89
2024/01/28 03:03:47;;;;;;;10.97;7.37;;;;;;;-2.23;100.00;97587.56;7396454;19;20463;-90
2024/01/28 03:06:15;;;;;;;13.83;8.77;;;;;;;-2.24;100.00;97582.59;7397702;19;20381;-95
2024/01/28 03:08:44;;;;;;;13.33;8.70;;;;;;;-3.69;100.00;97346.63;7397641;19;20388;-92
2024/01/28 03:11:12;;;;;;;16.00;9.27;;;;;;;-2.08;100.00;97611.41;7397832;19;20395;-90
2024/01/28 03:13:39;;;;;;;18.03;8.17;;;;;;;-3.26;100.00;97437.25;7396984;19;20788;-91
2024/01/28 03:16:07;;;;;;;13.90;8.63;;;;;;;-2.68;100.00;97568.97;7396180;19;20401;-89
2024/01/28 03:18:34;;;;;;;19.67;8.67;;;;;;;-2.98;100.00;97501.53;7397646;19;20456;-91
2024/01/28 03:21:02;;;;;;;21.33;10.00;;;;;;;-2.30;100.00;97611.63;7397390;19;20392;-90
2024/01/28 03:23:29;;;;;;;11.80;6.77;;;;;;;-3.22;100.00;97496.72;7396670;19;20397;-91
2024/01/28 03:25:57;;;;;;;13.37;7.97;;;;;;;-2.62;100.00;97584.63;7397704;19;20401;-91
2024/01/28 03:28:24;;;;;;;16.10;9.33;;;;;;;-2.85;100.00;97536.78;7397097;19;20429;-91
2024/01/28 03:30:52;;;;;;;17.43;8.93;;;;;;;-2.92;100.00;97499.97;7397193;19;20400;-91
2024/01/28 03:33:24;;;;;;;19.40;10.23;;;;;;;-2.03;100.00;97653.81;7396697;19;20710;-91
2024/01/28 03:35:51;;;;;;;13.47;9.23;;;;;;;-2.38;100.00;97590.22;7396398;19;20384;-92
2024/01/28 03:38:22;;;;;;;17.87;7.83;;;;;;;-2.84;100.00;97512.72;7398222;19;20368;-88
2024/01/28 03:40:50;;;;;;;11.70;8.90;;;;;;;-1.89;100.00;97670.94;7423278;19;20384;-90
2024/01/28 03:43:17;;;;;;;15.53;9.87;;;;;;;-2.66;100.00;97561.09;7427073;19;20438;-91
2024/01/28 03:45:44;;;;;;;18.87;9.97;;;;;;;-2.85;100.00;97554.75;7404324;19;20395;-92
2024/01/28 03:48:12;;;;;;;21.53;9.23;;;;;;;-2.70;100.00;97578.66;7396850;19;20377;-91
2024/01/28 03:50:39;;;;;;;23.43;9.83;;;;;;;-2.82;100.00;97553.63;7396801;19;20870;-91
2024/01/28 03:53:07;;;;;;;15.50;8.00;;;;;;;-2.02;100.00;97665.69;7395444;19;20400;-91
2024/01/28 03:55:35;;;;;;;13.70;8.50;;;;;;;-3.19;100.00;97480.94;7397276;19;20373;-91
2024/01/28 03:58:02;;;;;;;13.97;7.90;;;;;;;-2.35;100.00;97638.66;7396509;19;20404;-92
2024/01/28 04:00:30;;;;;;;15.77;10.67;;;;;;;-3.03;100.00;97521.78;7404271;19;20373;-92
2024/01/28 04:03:00;;;;;;;13.50;7.40;;;;;;;-2.75;100.00;97578.38;7403013;19;20393;-92
2024/01/28 04:05:28;;;;;;;13.80;9.10;;;;;;;-3.33;100.00;97499.75;7405693;19;20363;-92
2024/01/28 04:07:55;;;;;;;21.57;9.73;;;;;;;-2.31;100.00;97646.00;7405734;19;20394;-90
2024/01/28 04:10:23;;;;;;;12.30;8.23;;;;;;;-2.77;100.00;97576.97;7403796;19;20376;-92
2024/01/28 04:12:50;;;;;;;20.20;9.23;;;;;;;-2.70;100.00;97565.81;7403015;19;20398;-93
2024/01/28 04:15:18;;;;;;;13.43;9.07;;;;;;;-2.71;100.00;97583.94;7402328;19;20377;-93
2024/01/28 04:17:46;;;;;;;17.07;9.20;;;;;;;-2.32;100.00;97654.69;7403932;19;20440;-93
2024/01/28 04:20:14;;;;;;;11.00;8.00;;;;;;;-2.51;100.00;97638.13;7403519;19;20405;-93
2024/01/28 04:22:42;;;;;;;13.13;9.70;;;;;;;-2.58;100.00;97648.31;7402784;19;20375;-92
2024/01/28 04:25:10;;;;;;;19.93;9.43;;;;;;;-3.56;100.00;97515.28;7403460;19;20862;-92
2024/01/28 04:27:37;;;;;;;18.77;9.17;;;;;;;-3.03;100.00;97585.19;7403667;19;20361;-92
2024/01/28 04:30:06;;;;;;;17.60;8.10;;;;;;;-2.78;100.00;97619.84;7405455;19;20363;-92
2024/01/28 04:32:34;;;;;;;15.97;8.20;;;;;;;-3.26;100.00;97537.34;7402912;19;20449;-91
2024/01/28 04:35:02;;;;;;;18.53;8.33;;;;;;;-3.29;100.00;97550.53;7402597;19;20396;-92
2024/01/28 04:37:30;;;;;;;13.07;9.23;;;;;;;-2.71;100.00;97649.00;7402780;19;20389;-91
2024/01/28 04:39:58;;;;;;;8.73;7.63;;;;;;;-3.07;100.00;97583.97;7402808;19;20377;-92
2024/01/28 04:42:26;;;;;;;12.60;7.50;;;;;;;-2.50;100.00;97694.47;7402861;19;20859;-92
2024/01/28 04:44:53;;;;;;;15.73;9.60;;;;;;;-3.45;100.00;97552.50;7403403;19;20436;-91
2024/01/28 04:47:21;;;;;;;10.93;8.10;;;;;;;-2.79;100.00;97661.13;7404261;19;20365;-92
2024/01/28 04:49:48;;;;;;;14.53;8.00;;;;;;;-3.51;100.00;97530.94;7402534;19;20364;-91
2024/01/28 04:52:16;;;;;;;15.50;8.60;;;;;;;-3.15;100.00;97597.69;7403183;19;20454;-92
2024/01/28 04:54:44;;;;;;;8.80;7.90;;;;;;;-3.12;100.00;97581.91;7402754;19;20373;-92
2024/01/28 04:57:12;;;;;;;11.73;9.27;;;;;;;-2.99;100.00;97610.31;7401899;19;20373;-92
2024/01/28 04:59:39;;;;;;;10.27;7.23;;;;;;;-3.07;100.00;97589.09;7404184;19;20361;-92
2024/01/28 05:02:07;;;;;;;11.80;8.03;;;;;;;-2.63;100.00;97665.25;7403749;19;20372;-92
2024/01/28 05:04:34;;;;;;;14.20;8.60;;;;;;;-3.51;100.00;97522.41;7400044;19;20417;-93
2024/01/28 05:07:02;;;;;;;11.30;7.90;;;;;;;-3.12;100.00;97578.56;7402191;19;20452;-92
2024/01/28 05:09:31;;;;;;;17.30;9.43;;;;;;;-2.74;100.00;97656.25;7402906;19;20519;-92
2024/01/28 05:11:59;;;;;;;13.03;8.30;;;;;;;-3.30;100.00;97566.91;7402329;19;20372;-92
2024/01/28 05:14:26;;;;;;;26.97;8.83;;;;;;;-3.34;100.00;97575.94;7399769;19;20381;-92
2024/01/28 05:16:54;;;;;;;16.83;9.63;;;;;;;-3.03;100.00;97616.00;7399628;19;20417;-92
2024/01/28 05:19:24;;;;;;;17.83;8.23;;;;;;;-3.58;100.00;97541.09;7401920;19;20386;-92
2024/01/28 05:21:58;;;;;;;17.93;9.80;;;;;;;-2.58;100.00;97686.84;7402490;19;20391;-93
2024/01/28 05:24:26;;;;;;;21.60;9.70;;;;;;;-3.48;100.00;97550.31;7399504;19;20393;-92
2024/01/28 05:26:53;;;;;;;14.10;10.13;;;;;;;-2.77;100.00;97666.88;7401456;19;20343;-92
2024/01/28 05:29:21;;;;;;;19.40;10.97;;;;;;;-2.85;100.00;97660.06;7401698;19;20368;-92
2024/01/28 05:31:51;;;;;;;13.70;10.83;;;;;;;-3.00;100.00;97678.06;7401622;19;20369;-92
2024/01/28 05:34:19;;;;;;;12.83;8.90;;;;;;;-3.46;100.00;97610.72;7399789;19;20385;-92
2024/01/28 05:36:50;;;;;;;14.23;8.60;;;;;;;-2.95;100.00;97711.72;7399758;19;20384;-92
2024/01/28 05:39:17;;;;;;;19.50;9.10;;;;;;;-3.68;100.00;97568.00;7400651;19;20377;-92
2024/01/28 05:41:45;;;;;;;14.67;9.03;;;;;;;-3.06;100.00;97660.81;7402728;19;20357;-92
2024/01/28 05:44:18;;;;;;;16.37;9.70;;;;;;;-4.00;100.00;97528.94;7400606;19;20397;-93
2024/01/28 05:46:45;;;;;;;15.73;9.97;;;;;;;-2.85;100.00;97692.66;7400457;19;20365;-92
2024/01/28 05:49:13;;;;;;;12.60;9.00;;;;;;;-2.99;100.00;97673.72;7401066;19;20369;-93
2024/01/28 05:51:41;;;;;;;10.97;7.87;;;;;;;-3.54;100.00;97587.72;7400597;19;20866;-92
2024/01/28 05:54:08;;;;;;;14.50;10.13;;;;;;;-3.66;100.00;97564.28;7398216;19;20483;-91
2024/01/28 05:56:36;;;;;;;16.80;8.87;;;;;;;-3.40;100.00;97593.81;7398624;19;20376;-92
2024/01/28 05:59:04;;;;;;;34.60;26.03;;;;;;;-3.57;100.00;97596.56;7399867;19;20385;-92
2024/01/28 06:01:32;;;;;;;15.60;8.77;;;;;;;-2.92;100.00;97704.63;7399810;19;20392;-92
2024/01/28 06:03:59;;;;;;;11.03;6.27;;;;;;;-2.96;100.00;97674.19;7398716;19;20430;-93
2024/01/28 06:06:27;;;;;;;16.27;9.23;;;;;;;-3.82;100.00;97577.25;7399979;19;20372;-93
2024/01/28 06:08:55;;;;;;;13.10;7.00;;;;;;;-4.05;100.00;97518.41;7400289;19;20464;-93
2024/01/28 06:11:22;;;;;;;15.27;7.73;;;;;;;-3.45;100.00;97603.81;7399755;19;20681;-93
2024/01/28 06:13:50;;;;;;;15.50;6.57;;;;;;;-3.72;100.00;97567.56;7398136;19;20401;-92
2024/01/28 06:16:17;;;;;;;14.33;8.20;;;;;;;-3.46;100.00;97610.72;7399310;19;20376;-93
2024/01/28 06:18:45;;;;;;;11.50;7.77;;;;;;;-4.36;100.00;97474.97;7399385;19;20397;-92
2024/01/28 06:21:13;;;;;;;11.47;6.77;;;;;;;-3.90;100.00;97547.44;7397558;19;20452;-92
2024/01/28 06:23:42;;;;;;;15.50;9.07;;;;;;;-4.64;100.00;97433.78;7398445;19;20413;-93
2024/01/28 06:26:10;;;;;;;16.80;8.77;;;;;;;-3.91;100.00;97565.56;7399315;19;20387;-92
2024/01/28 06:28:37;;;;;;;14.60;7.23;;;;;;;-3.18;100.00;97649.41;7400946;19;20460;-92
2024/01/28 06:31:05;;;;;;;20.30;10.80;;;;;;;-4.11;100.00;97519.09;7399866;19;20372;-92
2024/01/28 06:33:33;;;;;;;24.30;14.67;;;;;;;-3.24;100.00;97655.25;7398639;19;20412;-92
2024/01/28 06:36:01;;;;;;;33.87;19.97;;;;;;;-3.58;100.00;97587.28;7398256;19;20377;-93
2024/01/28 06:38:28;;;;;;;44.93;25.80;;;;;;;-2.87;100.00;97690.28;7399114;19;20385;-93
2024/01/28 06:40:55;;;;;;;44.73;21.70;;;;;;;-3.76;100.00;97578.34;7398705;19;20401;-93
2024/01/28 06:43:25;;;;;;;28.27;20.17;;;;;;;-3.77;100.00;97581.88;7398611;19;20415;-93
2024/01/28 06:45:53;;;;;;;32.93;19.17;;;;;;;-2.89;100.00;97702.50;7398793;19;20385;-93
2024/01/28 06:48:21;;;;;;;38.13;19.83;;;;;;;-3.59;100.00;97590.81;7398592;19;20839;-93
2024/01/28 06:50:49;;;;;;;26.90;16.07;;;;;;;-3.34;100.00;97636.75;7398697;19;20391;-92
2024/01/28 06:53:17;;;;;;;22.37;14.90;;;;;;;-3.73;100.00;97580.56;7398205;19;20429;-92
2024/01/28 06:55:44;;;;;;;30.73;13.23;;;;;;;-4.08;100.00;97536.69;7398249;19;20409;-93
2024/01/28 06:58:12;;;;;;;35.80;13.20;;;;;;;-3.72;100.00;97587.28;7399203;19;20380;-93
2024/01/28 07:00:39;;;;;;;17.53;12.50;;;;;;;-3.00;100.00;97708.88;7398056;19;20402;-92
2024/01/28 07:03:07;;;;;;;15.97;10.60;;;;;;;-4.20;100.00;97505.56;7398232;19;20455;-92
2024/01/28 07:05:35;;;;;;;17.73;13.60;;;;;;;-3.27;100.00;97650.44;7397858;19;20388;-94
2024/01/28 07:08:10;;;;;;;17.27;12.97;;;;;;;-3.47;100.00;97623.75;7398974;19;20540;-92
2024/01/28 07:10:37;;;;;;;22.70;14.00;;;;;;;-3.80;100.00;97579.66;7397552;19;20381;-93
2024/01/28 07:13:05;;;;;;;17.67;13.60;;;;;;;-3.80;100.00;97606.09;7397510;19;20418;-93
2024/01/28 07:15:32;;;;;;;26.90;12.63;;;;;;;-4.15;100.00;97546.84;7399227;19;20381;-93
2024/01/28 07:17:59;;;;;;;19.70;12.47;;;;;;;-3.86;100.00;97584.56;7399245;19;20397;-93
2024/01/28 07:20:27;;;;;;;19.93;14.87;;;;;;;-3.85;100.00;97606.66;7397581;19;20388;-92
2024/01/28 07:23:04;;;;;;;16.47;12.80;;;;;;;-3.49;100.00;97647.00;7397779;19;20411;-92
2024/01/28 07:25:36;;;;;;;15.80;11.80;;;;;;;-3.97;100.00;97582.41;7398855;19;20353;-92
2024/01/28 07:28:04;;;;;;;17.03;12.17;;;;;;;-4.48;100.00;97512.25;7397761;19;20388;-92
2024/01/28 07:30:31;;;;;;;19.20;14.30;;;;;;;-4.04;100.00;97570.47;7397186;19;20376;-90
2024/01/28 07:32:59;;;;;;;19.10;14.90;;;;;;;-4.13;100.00;97536.44;7404196;19;20447;-92
2024/01/28 07:35:27;;;;;;;25.83;14.80;;;;;;;-4.07;100.00;97534.91;7411761;19;20707;-93
2024/01/28 07:37:54;;;;;;;33.10;19.60;;;;;;;-3.46;100.00;97609.94;7412750;19;20381;-89
2024/01/28 07:40:22;;;;;;;26.90;17.60;;;;;;;-2.83;100.00;97699.22;7439873;19;20380;-93
2024/01/28 07:42:49;;;;;;;26.27;16.53;;;;;;;-3.18;100.00;97638.34;7441742;19;20397;-92
2024/01/28 07:45:17;;;;;;;25.87;18.03;;;;;;;-3.40;100.00;97604.88;7418191;19;20372;-92
2024/01/28 07:47:44;;;;;;;30.90;18.40;;;;;;;-2.82;100.00;97700.81;7411182;19;20380;-92
2024/01/28 07:50:12;;;;;;;41.30;21.53;;;;;;;-3.83;100.00;97537.22;7410860;19;20376;-92
2024/01/28 07:52:40;;;;;;;22.90;16.20;;;;;;;-3.51;100.00;97594.25;7410375;19;20427;-92
2024/01/28 07:55:08;;;;;;;24.63;14.30;;;;;;;-3.17;100.00;97635.59;7410606;19;20410;-92
2024/01/28 07:57:35;;;;;;;31.37;13.63;;;;;;;-3.57;100.00;97542.69;7409313;19;20866;-92
2024/01/28 08:00:06;;;;;;;29.43;13.20;;;;;;;-2.50;100.00;97693.69;7410759;19;20377;-92
2024/01/28 08:02:37;;;;;;;23.50;12.50;;;;;;;-3.58;100.00;97512.09;7411823;19;20368;-92
2024/01/28 08:05:05;;;;;;;30.23;13.80;;;;;;;-2.76;100.00;97622.22;7411992;19;20372;-93
2024/01/28 08:07:34;;;;;;;23.87;12.40;;;;;;;-3.15;100.00;97561.75;7410466;19;20379;-92
2024/01/28 08:10:02;;;;;;;21.90;12.30;;;;;;;-2.77;100.00;97567.50;7410192;19;21027;-92
2024/01/28 08:12:29;;;;;;;23.07;10.77;;;;;;;-2.40;100.00;97623.00;7410156;19;20448;-92
2024/01/28 08:14:57;;;;;;;23.20;11.40;;;;;;;-2.62;100.00;97559.72;7412296;19;20436;-91
2024/01/28 08:17:24;;;;;;;16.53;14.07;;;;;;;-2.63;100.00;97565.84;7409505;19;20384;-93
2024/01/28 08:19:52;;;;;;;23.70;12.10;;;;;;;-2.42;100.00;97577.91;7410117;19;20463;-92
2024/01/28 08:22:19;;;;;;;18.07;10.80;;;;;;;-2.73;100.00;97560.22;7410539;19;20368;-92
2024/01/28 08:24:47;;;;;;;20.90;10.03;;;;;;;-2.83;100.00;97532.28;7410613;19;20413;-92
2024/01/28 08:27:15;;;;;;;14.40;10.83;;;;;;;-2.03;100.00;97649.47;7411057;19;20452;-92
2024/01/28 08:29:42;;;;;;;18.37;11.67;;;;;;;-2.63;100.00;97541.94;7410269;19;20397;-92
2024/01/28 08:32:09;;;;;;;25.20;11.63;;;;;;;-2.30;100.00;97581.59;7410656;19;20368;-92
2024/01/28 08:34:37;;;;;;;14.90;9.33;;;;;;;-1.63;100.00;97663.44;7407918;19;20382;-92
2024/01/28 08:37:05;;;;;;;17.37;9.10;;;;;;;-2.01;100.00;97585.78;7408722;19;20384;-92
2024/01/28 08:39:32;;;;;;;15.20;8.60;;;;;;;-1.71;100.00;97612.09;7409609;19;20384;-92
2024/01/28 08:42:00;;;;;;;14.07;9.40;;;;;;;-1.43;100.00;97648.13;7410049;19;20398;-92
2024/01/28 08:44:27;;;;;;;15.77;9.17;;;;;;;-2.02;100.00;97526.81;7402932;19;20372;-91
2024/01/28 08:46:55;;;;;;;14.83;11.57;;;;;;;-1.97;100.00;97539.88;7403031;19;20385;-92
2024/01/28 08:49:22;;;;;;;13.50;9.17;;;;;;;-1.52;100.00;97579.75;7402304;19;20385;-92
2024/01/28 08:51:50;;;;;;;14.63;9.77;;;;;;;-1.12;100.00;97639.94;7403158;19;20377;-92
2024/01/28 08:54:18;;;;;;;18.43;7.93;;;;;;;-1.96;100.00;97490.03;7399211;19;20453;-93
2024/01/28 08:56:47;;;;;;;19.40;10.37;;;;;;;-1.61;100.00;97537.16;7401585;19;20413;-91
2024/01/28 08:59:16;;;;;;;14.87;8.13;;;;;;;-1.21;100.00;97587.00;7402129;19;20389;-92
2024/01/28 09:01:44;;;;;;;17.53;8.90;;;;;;;-1.17;100.00;97565.81;7401633;19;20385;-93
2024/01/28 09:04:12;;;;;;;9.40;7.07;;;;;;;-2.21;100.00;97391.97;7399598;19;20484;-93
2024/01/28 09:06:39;;;;;;;18.23;7.63;;;;;;;-0.95;100.00;97594.84;7402412;19;20389;-93
2024/01/28 09:09:07;;;;;;;11.33;7.47;;;;;;;-2.04;100.00;97408.69;7401991;19;20471;-92
2024/01/28 09:11:35;;;;;;;18.40;8.23;;;;;;;-0.56;100.00;97603.69;7402333;19;20467;-92
2024/01/28 09:14:03;;;;;;;11.67;5.73;;;;;;;-0.75;100.00;97558.03;7399985;19;20416;-92
2024/01/28 09:16:34;;;;;;;16.50;6.40;;;;;;;-0.64;100.00;97547.13;7401026;19;20410;-92
2024/01/28 09:19:03;;;;;;;10.60;9.50;;;;;;;0.08;100.00;97590.22;7402323;19;20385;-93
2024/01/28 09:21:31;;;;;;;13.13;8.30;;;;;;;-0.29;100.00;97520.19;7401896;19;20377;-93
2024/01/28 09:23:59;;;;;;;8.53;7.60;;;;;;;-0.13;100.00;97542.22;7399916;19;20430;-92
2024/01/28 09:26:44;;;;;;;12.30;7.53;;;;;;;0.23;100.00;97597.78;7400907;19;20398;-92
2024/01/28 09:29:14;;;;;;;11.53;8.27;;;;;;;-0.16;100.00;97532.31;7401342;19;20381;-93
2024/01/28 09:31:47;;;;;;;14.20;6.60;;;;;;;0.06;100.00;97540.59;7401588;19;20413;-91
2024/01/28 09:34:15;;;;;;;7.47;5.13;;;;;;;0.71;100.00;97626.69;7398923;19;20412;-91
2024/01/28 09:36:42;;;;;;;14.47;6.93;;;;;;;0.25;100.00;97549.34;7400646;19;20683;-92
2024/01/28 09:39:12;;;;;;;8.10;6.00;;;;;;;0.44;100.00;97548.47;7400722;19;20377;-92
2024/01/28 09:41:55;;;;;;;9.27;6.43;;;;;;;1.55;100.00;97661.97;7400692;19;20905;-91
2024/01/28 09:44:22;;;;;;;12.73;5.93;;;;;;;0.55;100.00;97518.66;7399203;19;20408;-93
2024/01/28 09:46:50;;;;;;;7.43;4.60;;;;;;;0.96;100.00;97597.59;7401323;19;20391;-92
2024/01/28 09:49:19;;;;;;;9.37;5.27;;;;;;;0.47;100.00;97508.53;7402421;19;20373;-92
2024/01/28 09:51:47;;;;;;;7.50;5.33;;;;;;;1.01;100.00;97567.56;7402440;19;20357;-92
2024/01/28 09:54:15;;;;;;;12.43;5.90;;;;;;;1.49;100.00;97590.41;7398583;19;20416;-92
2024/01/28 09:56:45;;;;;;;6.83;5.20;;;;;;;2.05;100.00;97667.28;7397579;19;20365;-92
2024/01/28 09:59:14;;;;;;;8.33;6.00;;;;;;;1.53;100.00;97579.41;7400281;19;20379;-92
2024/01/28 10:01:42;;;;;;;6.83;5.87;;;;;;;1.97;100.00;97631.31;7401092;19;20381;-91
2024/01/28 10:04:15;;;;;;;9.93;7.50;;;;;;;0.69;100.00;97447.06;7399432;19;20782;-92
2024/01/28 10:06:47;;;;;;;5.83;4.63;;;;;;;1.53;100.00;97545.78;7400065;19;20365;-92
2024/01/28 10:09:15;;;;;;;10.00;4.93;;;;;;;1.55;100.00;97526.66;7400169;19;20380;-91
2024/01/28 10:11:42;;;;;;;8.07;6.13;;;;;;;1.98;100.00;97563.78;7399762;19;20421;-92
2024/01/28 10:14:10;;;;;;;12.07;6.03;;;;;;;2.48;100.00;97617.31;7398518;19;20930;-90
2024/01/28 10:16:38;;;;;;;5.87;4.50;;;;;;;2.11;100.00;97573.25;7400385;19;20388;-91
2024/01/28 10:19:05;;;;;;;7.90;4.33;;;;;;;2.01;100.00;97555.59;7399296;19;20405;-90
2024/01/28 10:21:33;;;;;;;11.70;4.63;;;;;;;1.34;100.00;97422.59;7399677;19;20398;-90
2024/01/28 10:24:01;;;;;;;6.03;4.33;;;;;;;2.50;100.00;97612.72;7397777;19;20412;-91
2024/01/28 10:26:28;;;;;;;5.80;4.10;;;;;;;1.85;100.00;97511.31;7400240;19;20381;-91
2024/01/28 10:28:55;;;;;;;6.50;4.10;;;;;;;2.77;100.00;97590.72;7398895;19;20393;-92
2024/01/28 10:31:23;;;;;;;4.47;3.63;;;;;;;2.20;100.00;97496.84;7400355;19;20397;-90
2024/01/28 10:33:50;;;;;;;5.47;3.90;;;;;;;2.96;100.00;97562.97;7398000;19;20417;-89
2024/01/28 10:36:18;;;;;;;5.03;3.70;;;;;;;3.16;100.00;97579.06;7399368;19;20376;-90
2024/01/28 10:38:46;;;;;;;13.30;4.40;;;;;;;1.93;100.00;97395.34;7397294;19;20373;-91
2024/01/28 10:41:33;;;;;;;4.83;4.20;;;;;;;2.44;100.00;97487.41;7399508;19;20384;-94
2024/01/28 10:44:20;;;;;;;3.30;2.80;;;;;;;3.45;100.00;97618.25;7399086;19;20398;-89
2024/01/28 10:46:54;;;;;;;3.87;3.37;;;;;;;3.83;100.00;97682.81;7395485;19;20377;-89
2024/01/28 10:49:31;;;;;;;6.43;3.40;;;;;;;3.38;100.00;97592.38;7397756;19;20850;-90
2024/01/28 10:52:01;;;;;;;6.73;3.57;;;;;;;3.21;100.00;97562.88;7397567;19;20377;-89
2024/01/28 10:54:29;;;;;;;6.07;3.40;;;;;;;3.30;100.00;97562.34;7396568;19;20719;-90
2024/01/28 10:56:59;;;;;;;4.20;3.17;;;;;;;3.71;100.00;97584.16;7397383;19;20393;-90
2024/01/28 10:59:27;;;;;;;3.80;3.07;;;;;;;2.94;100.00;97469.84;7398109;19;20379;-90
2024/01/28 11:01:55;;;;;;;3.83;2.93;;;;;;;3.49;100.00;97544.91;7397441;19;20385;-90
2024/01/28 11:04:23;;;;;;;6.60;3.33;;;;;;;3.59;100.00;97541.78;7395780;19;20377;-91
2024/01/28 11:06:51;;;;;;;6.37;3.67;;;;;;;3.98;100.00;97605.31;7396385;19;20385;-91
2024/01/28 11:09:20;;;;;;;4.17;2.83;;;;;;;3.67;100.00;97543.25;7397283;19;20357;-91
2024/01/28 11:11:48;;;;;;;4.17;3.03;;;;;;;3.70;100.00;97522.03;7397740;19;20389;-91
2024/01/28 11:14:17;;;;;;;4.53;2.90;;;;;;;3.35;100.00;97428.56;7395954;19;20448;-91
2024/01/28 11:16:46;;;;;;;6.27;3.03;;;;;;;3.90;100.00;97473.19;7397171;19;20456;-91
2024/01/28 11:19:15;;;;;;;7.17;3.40;;;;;;;4.18;100.00;97533.03;7395162;19;20388;-92
2024/01/28 11:21:51;;;;;;;3.60;2.60;;;;;;;4.84;100.00;97608.25;7397727;19;20392;-90
2024/01/28 11:24:20;;;;;;;5.87;3.37;;;;;;;4.97;100.00;97614.00;7395517;19;20409;-90